createdAt,value
2023-01-30T00:04:04.329Z,24.92
2023-01-30T00:09:07.071Z,18.60
2023-01-30T00:14:11.125Z,13.07
2023-01-30T00:19:13.809Z,25.35
2023-01-30T00:24:16.584Z,16.13
2023-01-30T00:29:20.704Z,9.63
2023-01-30T00:34:23.327Z,21.85
2023-01-30T00:39:26.005Z,19.27
2023-01-30T00:44:47.429Z,20.17
2023-01-30T00:49:50.076Z,23.87
2023-01-30T00:54:52.696Z,9.70
2023-01-30T00:59:57.449Z,16.50
2023-01-30T01:05:00.043Z,25.57
2023-01-30T01:10:02.882Z,7.23
2023-01-30T01:15:07.708Z,17.73
2023-01-30T01:20:11.020Z,21.57
2023-01-30T01:25:13.943Z,29.00
2023-01-30T01:30:18.706Z,10.13
2023-01-30T01:35:22.081Z,10.27
2023-01-30T01:40:42.900Z,24.83
2023-01-30T01:45:49.775Z,20.10
2023-01-30T01:50:54.618Z,13.10
2023-01-30T01:55:59.725Z,32.57
2023-01-30T02:01:03.806Z,2.90
2023-01-30T02:06:07.013Z,26.42
2023-01-30T02:11:11.229Z,11.70
2023-01-30T02:21:37.358Z,11.00
2023-01-30T02:26:55.770Z,22.53
2023-01-30T02:32:06.581Z,12.67
2023-01-30T02:37:16.627Z,21.80
2023-01-30T02:42:22.142Z,14.73
2023-01-30T02:47:28.878Z,18.73
2023-01-30T02:52:32.129Z,22.80
2023-01-30T02:57:34.720Z,18.57
2023-01-30T03:02:52.376Z,33.80
2023-01-30T03:08:04.753Z,15.20
2023-01-30T03:13:11.166Z,17.10
2023-01-30T03:18:14.069Z,29.73
2023-01-30T03:23:18.054Z,21.77
2023-01-30T03:28:22.092Z,25.63
2023-01-30T03:33:24.795Z,27.58
2023-01-30T03:38:28.766Z,34.43
2023-01-30T03:43:31.430Z,33.28
2023-01-30T03:48:33.953Z,37.33
2023-01-30T03:53:37.913Z,22.47
2023-01-30T03:58:40.493Z,40.85
2023-01-30T04:03:43.134Z,26.50
2023-01-30T04:08:47.017Z,24.03
2023-01-30T04:13:49.619Z,27.17
2023-01-30T04:18:52.314Z,25.60
2023-01-30T04:23:56.356Z,22.60
2023-01-30T04:28:58.996Z,33.13
2023-01-30T04:34:02.052Z,35.40
2023-01-30T04:39:06.120Z,33.10
2023-01-30T04:44:08.839Z,26.63
2023-01-30T04:49:11.593Z,24.23
2023-01-30T04:54:15.682Z,41.73
2023-01-30T04:59:18.333Z,27.67
2023-01-30T05:04:22.098Z,26.80
2023-01-30T05:09:26.182Z,22.63
2023-01-30T05:14:28.904Z,21.13
2023-01-30T05:19:31.717Z,28.10
2023-01-30T05:24:36.961Z,19.27
2023-01-30T05:29:39.677Z,30.27
2023-01-30T05:34:42.395Z,25.97
2023-01-30T05:39:46.418Z,16.90
2023-01-30T05:49:52.665Z,31.73
2023-01-30T05:54:56.778Z,28.73
2023-01-30T06:05:01.853Z,35.07
2023-01-30T06:10:06.099Z,25.03
2023-01-30T06:15:09.970Z,18.20
2023-01-30T06:20:13.050Z,14.30
2023-01-30T06:25:17.761Z,17.63
2023-01-30T06:30:20.813Z,27.00
2023-01-30T06:35:23.488Z,11.80
2023-01-30T06:40:27.682Z,31.50
2023-01-30T06:50:32.955Z,28.20
2023-01-30T06:55:37.122Z,19.33
2023-01-30T07:00:40.589Z,26.77
2023-01-30T07:10:47.909Z,23.13
2023-01-30T07:15:50.557Z,24.52
2023-01-30T07:20:53.083Z,26.87
2023-01-30T07:25:57.002Z,16.23
2023-01-30T07:31:00.495Z,18.85
2023-01-30T07:36:03.162Z,21.58
2023-01-30T07:41:07.145Z,19.13
2023-01-30T07:46:09.895Z,12.57
2023-01-30T07:51:12.466Z,23.10
2023-01-30T07:56:22.889Z,17.03
2023-01-30T08:01:25.634Z,16.27
2023-01-30T08:06:28.227Z,22.13
2023-01-30T08:11:32.276Z,19.43
2023-01-30T08:16:36.971Z,18.67
2023-01-30T08:21:40.650Z,20.77
2023-01-30T08:26:48.690Z,14.43
2023-01-30T08:31:51.378Z,19.55
2023-01-30T08:36:53.982Z,14.30
2023-01-30T08:41:58.179Z,17.92
2023-01-30T08:52:03.143Z,19.67
2023-01-30T08:57:52.297Z,13.93
2023-01-30T09:03:00.464Z,14.95
2023-01-30T09:08:03.695Z,16.63
2023-01-30T09:13:06.401Z,17.70
2023-01-30T09:18:10.322Z,16.52
2023-01-30T09:23:12.943Z,18.38
2023-01-30T09:28:15.499Z,19.15
2023-01-30T09:33:20.358Z,12.18
2023-01-30T09:38:22.918Z,14.88
2023-01-30T09:43:30.002Z,16.10
2023-01-30T09:48:37.536Z,12.77
2023-01-30T09:53:49.459Z,11.15
2023-01-30T09:58:53.247Z,18.67
2023-01-30T10:04:02.633Z,13.75
2023-01-30T10:09:09.959Z,14.15
2023-01-30T10:14:21.916Z,19.13
2023-01-30T10:19:36.585Z,13.68
2023-01-30T10:24:46.625Z,11.90
2023-01-30T10:29:52.960Z,11.55
2023-01-30T10:34:58.852Z,15.18
2023-01-30T10:40:05.379Z,16.25
2023-01-30T10:45:12.085Z,9.73
2023-01-30T10:50:18.698Z,9.88
2023-01-30T10:55:37.088Z,14.02
2023-01-30T11:00:42.005Z,8.60
2023-01-30T11:05:49.882Z,8.60
2023-01-30T11:10:53.328Z,11.40
2023-01-30T11:15:57.898Z,12.40
2023-01-30T11:21:05.166Z,14.43
2023-01-30T11:26:11.716Z,9.52
2023-01-30T11:31:19.790Z,11.07
2023-01-30T11:36:28.568Z,11.40
2023-01-30T11:41:31.872Z,9.88
2023-01-30T11:46:35.576Z,9.70
2023-01-30T11:51:40.327Z,8.52
2023-01-30T11:56:48.680Z,12.93
2023-01-30T12:01:51.704Z,10.18
2023-01-30T12:07:07.132Z,7.32
2023-01-30T12:12:28.314Z,7.07
2023-01-30T12:17:36.393Z,14.32
2023-01-30T12:22:44.098Z,7.43
2023-01-30T12:27:49.894Z,11.07
2023-01-30T12:32:53.569Z,10.70
2023-01-30T12:38:03.926Z,9.35
2023-01-30T12:43:15.739Z,9.40
2023-01-30T12:48:29.661Z,10.98
2023-01-30T12:53:36.406Z,8.85
2023-01-30T12:58:43.731Z,9.90
2023-01-30T13:03:51.625Z,10.00
2023-01-30T13:09:05.001Z,7.88
2023-01-30T13:14:10.533Z,7.97
2023-01-30T13:19:18.024Z,6.47
2023-01-30T13:24:26.249Z,7.97
2023-01-30T13:29:31.601Z,7.70
2023-01-30T13:34:36.167Z,8.95
2023-01-30T13:39:42.609Z,10.10
2023-01-30T13:44:46.686Z,8.43
2023-01-30T13:49:53.621Z,7.77
2023-01-30T13:55:02.680Z,7.43
2023-01-30T14:00:19.142Z,5.88
2023-01-30T14:05:54.327Z,6.05
2023-01-30T14:10:58.855Z,8.05
2023-01-30T14:16:02.604Z,8.05
2023-01-30T14:21:24.555Z,5.53
2023-01-30T14:26:54.657Z,5.00
2023-01-30T14:31:59.183Z,5.72
2023-01-30T14:37:01.918Z,6.20
2023-01-30T14:42:24.452Z,5.57
2023-01-30T14:47:34.436Z,8.13
2023-01-30T14:52:49.561Z,6.55
2023-01-30T14:57:54.946Z,7.75
2023-01-30T15:03:00.406Z,4.93
2023-01-30T15:08:13.938Z,8.73
2023-01-30T15:13:33.112Z,5.50
2023-01-30T15:18:57.744Z,8.07
2023-01-30T15:24:52.925Z,7.05
2023-01-30T15:30:18.779Z,9.07
2023-01-30T15:35:39.391Z,9.05
2023-01-30T15:41:01.674Z,9.13
2023-01-30T15:46:13.398Z,9.38
2023-01-30T15:51:38.505Z,9.88
2023-01-30T15:57:12.187Z,13.88
2023-01-30T16:02:26.699Z,7.88
2023-01-30T16:07:35.721Z,8.00
2023-01-30T16:12:47.761Z,11.63
2023-01-30T16:18:04.381Z,9.73
2023-01-30T16:23:21.893Z,7.18
2023-01-30T16:28:43.138Z,9.13
2023-01-30T16:34:01.581Z,9.60
2023-01-30T16:39:33.788Z,9.63
2023-01-30T16:44:53.622Z,6.87
2023-01-30T16:55:29.630Z,8.97
2023-01-30T17:00:39.690Z,14.03
2023-01-30T17:05:49.465Z,11.20
2023-01-30T17:11:06.660Z,11.60
2023-01-30T17:16:25.049Z,9.43
2023-01-30T17:21:31.923Z,10.10
2023-01-30T17:26:48.660Z,12.27
2023-01-30T17:31:56.970Z,11.40
2023-01-30T17:37:08.557Z,10.27
2023-01-30T17:42:14.899Z,10.57
2023-01-30T17:47:28.386Z,7.37
2023-01-30T17:52:41.023Z,10.80
2023-01-30T17:57:56.938Z,6.77
2023-01-30T18:03:27.646Z,11.30
2023-01-30T18:08:40.553Z,10.43
2023-01-30T18:13:52.465Z,8.50
2023-01-30T18:19:17.449Z,8.27
2023-01-30T18:24:37.831Z,8.90
2023-01-30T18:29:50.891Z,15.93
2023-01-30T18:35:03.899Z,6.07
2023-01-30T18:40:28.050Z,14.40
2023-01-30T18:45:35.015Z,12.43
2023-01-30T18:51:05.581Z,7.47
2023-01-30T19:01:45.909Z,6.27
2023-01-30T19:06:54.557Z,9.00
2023-01-30T19:12:19.819Z,9.10
2023-01-30T19:17:33.227Z,7.72
2023-01-30T19:22:44.307Z,9.63
2023-01-30T19:28:00.632Z,10.47
2023-01-30T19:33:04.997Z,9.37
2023-01-30T19:38:31.259Z,7.33
2023-01-30T19:43:39.898Z,8.40
2023-01-30T19:48:51.631Z,4.95
2023-01-30T19:53:59.801Z,10.65
2023-01-30T19:59:04.543Z,5.57
2023-01-30T20:04:08.922Z,9.30
2023-01-30T20:14:47.111Z,5.67
2023-01-30T20:20:00.818Z,7.37
2023-01-30T20:25:07.085Z,5.97
2023-01-30T20:30:24.033Z,6.87
2023-01-30T20:35:28.855Z,5.77
2023-01-30T20:40:33.376Z,8.40
2023-01-30T20:45:42.133Z,5.03
2023-01-30T20:50:48.455Z,10.13
2023-01-30T20:55:55.645Z,4.80
2023-01-30T21:01:11.015Z,3.53
2023-01-30T21:06:42.854Z,10.50
2023-01-30T21:11:48.128Z,8.35
2023-01-30T21:16:55.434Z,5.10
2023-01-30T21:22:07.449Z,6.37
2023-01-30T21:27:13.989Z,7.97
2023-01-30T21:32:23.521Z,5.40
2023-01-30T21:37:45.059Z,6.97
2023-01-30T21:43:20.380Z,6.80
2023-01-30T21:48:33.734Z,6.43
2023-01-30T21:53:38.877Z,6.00
2023-01-30T21:58:43.785Z,3.10
2023-01-30T22:03:51.138Z,9.13
2023-01-30T22:09:02.264Z,8.37
2023-01-30T22:14:09.941Z,6.10
2023-01-30T22:19:24.703Z,8.47
2023-01-30T22:24:38.573Z,4.27
2023-01-30T22:29:43.269Z,5.27
2023-01-30T22:34:51.152Z,5.27
2023-01-30T22:39:55.287Z,6.63
2023-01-30T22:45:00.215Z,5.28
2023-01-30T22:50:08.997Z,7.87
2023-01-30T22:55:12.873Z,6.60
2023-01-30T23:00:16.790Z,6.18
2023-01-30T23:05:31.716Z,5.70
2023-01-30T23:10:35.549Z,7.67
2023-01-30T23:15:45.963Z,5.38
2023-01-30T23:21:03.207Z,4.37
2023-01-30T23:26:15.960Z,4.23
2023-01-30T23:31:25.015Z,5.80
2023-01-30T23:36:30.637Z,6.00
2023-01-30T23:41:42.685Z,9.07
2023-01-30T23:46:46.903Z,7.57
2023-01-30T23:51:53.559Z,4.20
2023-01-30T23:57:08.199Z,6.53
